createdAt,value
2018-01-27T00:01:39.550Z,6.90
2018-01-27T00:06:42.178Z,6.90
2018-01-27T00:11:45.214Z,6.90
2018-01-27T00:16:48.651Z,6.90
2018-01-27T00:21:51.377Z,6.90
2018-01-27T00:26:54.012Z,6.80
2018-01-27T00:31:57.251Z,6.80
2018-01-27T00:37:00.671Z,6.80
2018-01-27T00:42:05.070Z,6.80
2018-01-27T00:47:07.702Z,6.80
2018-01-27T00:52:11.302Z,6.80
2018-01-27T00:57:13.970Z,6.80
2018-01-27T01:02:16.701Z,6.70
2018-01-27T01:07:19.333Z,6.70
2018-01-27T01:12:23.077Z,6.60
2018-01-27T01:17:25.721Z,6.60
2018-01-27T01:22:28.529Z,6.60
2018-01-27T01:27:31.149Z,6.60
2018-01-27T01:32:35.125Z,6.60
2018-01-27T01:37:37.785Z,6.60
2018-01-27T01:42:47.385Z,6.70
2018-01-27T01:47:50.165Z,6.70
2018-01-27T01:52:53.787Z,6.70
2018-01-27T01:57:56.434Z,6.70
2018-01-27T02:02:59.838Z,6.70
2018-01-27T02:08:02.455Z,6.50
2018-01-27T02:13:05.650Z,6.50
2018-01-27T02:18:09.110Z,6.70
2018-01-27T02:23:13.497Z,6.70
2018-01-27T02:28:16.134Z,6.70
2018-01-27T02:33:18.882Z,6.70
2018-01-27T02:38:21.544Z,6.70
2018-01-27T02:43:25.609Z,6.80
2018-01-27T02:48:28.226Z,6.80
2018-01-27T02:53:31.578Z,6.70
2018-01-27T02:58:34.315Z,6.80
2018-01-27T03:03:37.774Z,6.70
2018-01-27T03:08:41.202Z,6.80
2018-01-27T03:13:44.603Z,6.70
2018-01-27T03:18:47.321Z,6.80
2018-01-27T03:23:50.641Z,6.70
2018-01-27T03:28:54.066Z,6.70
2018-01-27T03:33:57.318Z,6.70
2018-01-27T03:38:59.971Z,6.70
2018-01-27T03:44:02.736Z,6.70
2018-01-27T03:49:05.404Z,6.70
2018-01-27T03:54:09.575Z,6.60
2018-01-27T03:59:12.229Z,6.60
2018-01-27T04:04:16.692Z,6.60
2018-01-27T04:09:19.416Z,6.60
2018-01-27T04:14:22.921Z,6.70
2018-01-27T04:19:25.616Z,6.70
2018-01-27T04:24:28.831Z,6.80
2018-01-27T04:29:31.533Z,6.80
2018-01-27T04:34:35.043Z,6.80
2018-01-27T04:39:37.718Z,6.70
2018-01-27T04:44:41.874Z,6.80
2018-01-27T04:49:44.490Z,6.80
2018-01-27T04:54:47.579Z,6.70
2018-01-27T04:59:51.009Z,6.80
2018-01-27T05:04:53.806Z,6.70
2018-01-27T05:09:56.421Z,6.80
2018-01-27T05:14:59.830Z,6.80
2018-01-27T05:20:02.502Z,6.70
2018-01-27T05:25:06.888Z,6.70
2018-01-27T05:30:09.550Z,6.70
2018-01-27T05:35:13.217Z,6.70
2018-01-27T05:40:15.985Z,6.70
2018-01-27T05:45:19.543Z,6.70
2018-01-27T05:50:22.160Z,6.70
2018-01-27T05:55:25.371Z,6.80
2018-01-27T06:00:28.047Z,6.70
2018-01-27T06:05:30.846Z,6.70
2018-01-27T06:10:33.517Z,6.60
2018-01-27T06:15:36.872Z,6.70
2018-01-27T06:20:39.545Z,6.70
2018-01-27T06:25:42.762Z,6.70
2018-01-27T06:30:45.449Z,6.60
2018-01-27T06:35:48.534Z,6.70
2018-01-27T06:40:51.964Z,6.60
2018-01-27T06:45:56.224Z,6.60
2018-01-27T06:50:58.844Z,6.60
2018-01-27T06:56:02.244Z,6.60
2018-01-27T07:01:04.910Z,6.60
2018-01-27T07:06:08.912Z,6.50
2018-01-27T07:11:11.586Z,6.50
2018-01-27T07:16:14.622Z,6.60
2018-01-27T07:21:17.289Z,6.70
2018-01-27T07:26:20.487Z,6.70
2018-01-27T07:31:23.155Z,6.80
2018-01-27T07:36:27.324Z,6.80
2018-01-27T07:41:30.314Z,6.80
2018-01-27T07:46:33.298Z,6.80
2018-01-27T07:51:35.949Z,6.70
2018-01-27T07:56:38.983Z,6.80
2018-01-27T08:01:41.648Z,6.70
2018-01-27T08:06:44.551Z,6.70
2018-01-27T08:11:47.213Z,6.80
2018-01-27T08:16:51.106Z,6.70
2018-01-27T08:21:53.762Z,6.60
2018-01-27T08:26:56.695Z,6.60
2018-01-27T08:31:59.349Z,6.50
2018-01-27T08:37:03.062Z,6.60
2018-01-27T08:42:05.742Z,6.60
2018-01-27T08:47:09.085Z,6.60
2018-01-27T08:52:12.503Z,6.70
2018-01-27T08:57:16.779Z,6.70
2018-01-27T09:02:19.443Z,6.70
2018-01-27T09:07:23.326Z,6.70
2018-01-27T09:12:25.996Z,6.70
2018-01-27T09:17:29.315Z,6.70
2018-01-27T09:22:31.941Z,6.70
2018-01-27T09:27:35.383Z,6.80
2018-01-27T09:32:38.030Z,6.80
2018-01-27T09:37:41.357Z,6.90
2018-01-27T09:42:44.028Z,7.00
2018-01-27T09:47:48.023Z,7.10
2018-01-27T09:52:50.658Z,7.10
2018-01-27T09:57:53.326Z,7.30
2018-01-27T10:02:56.115Z,7.10
2018-01-27T10:07:59.147Z,7.30
2018-01-27T10:13:02.648Z,7.30
2018-01-27T10:18:06.380Z,7.20
2018-01-27T10:23:09.114Z,7.90
2018-01-27T10:28:12.773Z,7.80
2018-01-27T10:33:15.546Z,7.70
2018-01-27T10:38:19.265Z,7.90
2018-01-27T10:43:22.888Z,8.70
2018-01-27T10:48:26.967Z,9.00
2018-01-27T10:53:30.035Z,8.30
2018-01-27T10:58:33.558Z,8.90
2018-01-27T11:03:36.325Z,8.90
2018-01-27T11:08:40.108Z,8.30
2018-01-27T11:13:42.985Z,9.30
2018-01-27T11:18:46.181Z,10.40
2018-01-27T11:23:49.201Z,10.50
2018-01-27T11:28:52.785Z,10.10
2018-01-27T11:33:56.959Z,10.40
2018-01-27T11:39:00.582Z,10.40
2018-01-27T11:44:03.516Z,10.70
2018-01-27T11:49:07.615Z,10.60
2018-01-27T11:54:10.831Z,10.00
2018-01-27T11:59:14.728Z,10.40
2018-01-27T12:04:17.469Z,10.90
2018-01-27T12:09:21.116Z,11.40
2018-01-27T12:14:23.757Z,10.50
2018-01-27T12:19:27.372Z,11.00
2018-01-27T12:24:30.027Z,10.90
2018-01-27T12:29:32.704Z,11.00
2018-01-27T12:34:35.372Z,11.20
2018-01-27T12:39:38.085Z,12.80
2018-01-27T12:44:41.535Z,9.40
2018-01-27T12:49:44.283Z,9.40
2018-01-27T12:54:46.905Z,9.70
2018-01-27T12:59:54.121Z,10.30
2018-01-27T13:04:57.548Z,10.20
2018-01-27T13:10:00.838Z,10.20
2018-01-27T13:15:04.294Z,10.00
2018-01-27T13:20:07.771Z,10.00
2018-01-27T13:25:12.062Z,9.40
2018-01-27T13:30:15.188Z,9.40
2018-01-27T13:35:17.862Z,9.70
2018-01-27T13:40:21.259Z,9.20
2018-01-27T13:45:23.901Z,8.60
2018-01-27T13:50:27.019Z,8.50
2018-01-27T13:55:29.703Z,8.60
2018-01-27T14:00:32.537Z,9.10
2018-01-27T14:05:35.159Z,9.90
2018-01-27T14:10:38.817Z,11.20
2018-01-27T14:15:41.469Z,11.20
2018-01-27T14:20:46.162Z,12.20
2018-01-27T14:25:48.855Z,12.20
2018-01-27T14:30:51.948Z,13.00
2018-01-27T14:35:54.631Z,11.60
2018-01-27T14:40:58.387Z,11.10
2018-01-27T14:46:01.046Z,11.10
2018-01-27T14:51:04.532Z,9.50
2018-01-27T14:56:07.191Z,9.40
2018-01-27T15:01:09.953Z,9.20
2018-01-27T15:06:12.620Z,9.10
2018-01-27T15:11:16.241Z,8.10
2018-01-27T15:16:18.863Z,8.00
2018-01-27T15:21:22.518Z,7.70
2018-01-27T15:26:25.937Z,7.10
2018-01-27T15:31:29.514Z,6.70
2018-01-27T15:36:32.175Z,6.70
2018-01-27T15:41:36.114Z,6.40
2018-01-27T15:46:38.785Z,6.60
2018-01-27T15:51:42.681Z,6.30
2018-01-27T15:56:45.345Z,6.30
2018-01-27T16:01:48.044Z,6.10
2018-01-27T16:06:50.710Z,5.70
2018-01-27T16:11:55.550Z,5.60
2018-01-27T16:16:58.839Z,5.50
2018-01-27T16:22:02.338Z,5.70
2018-01-27T16:27:05.275Z,5.50
2018-01-27T16:32:10.348Z,5.20
2018-01-27T16:37:13.378Z,5.20
2018-01-27T16:42:16.535Z,5.30
2018-01-27T16:47:19.294Z,5.40
2018-01-27T16:52:22.214Z,5.50
2018-01-27T16:57:24.875Z,5.80
2018-01-27T17:02:27.912Z,5.70
2018-01-27T17:07:30.665Z,5.40
2018-01-27T17:12:33.853Z,5.20
2018-01-27T17:17:36.775Z,5.10
2018-01-27T17:22:39.798Z,5.30
2018-01-27T17:27:42.978Z,5.40
2018-01-27T17:32:47.286Z,5.30
2018-01-27T17:37:50.127Z,5.30
2018-01-27T17:42:52.962Z,5.40
2018-01-27T17:47:56.172Z,5.40
2018-01-27T17:52:59.519Z,5.50
2018-01-27T17:58:03.635Z,5.50
2018-01-27T18:03:07.911Z,5.10
2018-01-27T18:08:10.658Z,5.10
2018-01-27T18:13:14.034Z,5.20
2018-01-27T18:18:16.749Z,5.10
2018-01-27T18:23:20.436Z,4.60
2018-01-27T18:28:23.226Z,4.50
2018-01-27T18:33:27.407Z,4.40
2018-01-27T18:38:30.104Z,4.40
2018-01-27T18:43:33.033Z,4.40
2018-01-27T18:48:35.794Z,4.30
2018-01-27T18:53:39.024Z,4.20
2018-01-27T18:58:41.741Z,4.30
2018-01-27T19:03:44.708Z,4.50
2018-01-27T19:08:47.437Z,4.50
2018-01-27T19:13:50.154Z,4.50
2018-01-27T19:18:53.612Z,4.50
2018-01-27T19:23:58.092Z,4.50
2018-01-27T19:29:00.770Z,4.50
2018-01-27T19:34:04.288Z,4.50
2018-01-27T19:39:07.011Z,4.50
2018-01-27T19:44:10.582Z,4.40
2018-01-27T19:49:13.981Z,4.40
2018-01-27T19:54:18.351Z,4.40
2018-01-27T19:59:21.828Z,4.40
2018-01-27T20:04:24.719Z,4.40
2018-01-27T20:09:27.417Z,4.40
2018-01-27T20:14:30.830Z,4.20
2018-01-27T20:19:34.304Z,4.20
2018-01-27T20:24:38.143Z,4.30
2018-01-27T20:29:40.811Z,4.30
2018-01-27T20:34:44.016Z,4.30
2018-01-27T20:39:46.750Z,4.20
2018-01-27T20:44:50.273Z,4.20
2018-01-27T20:49:53.795Z,4.10
2018-01-27T20:54:56.974Z,4.00
2018-01-27T21:00:00.869Z,3.90
2018-01-27T21:05:03.737Z,3.90
2018-01-27T21:10:06.646Z,4.00
2018-01-27T21:15:09.860Z,3.90
2018-01-27T21:20:12.649Z,4.10
2018-01-27T21:25:16.497Z,4.20
2018-01-27T21:30:19.125Z,4.10
2018-01-27T21:35:23.009Z,4.30
2018-01-27T21:40:26.013Z,4.30
2018-01-27T21:45:30.163Z,4.50
2018-01-27T21:50:33.787Z,4.50
2018-01-27T21:55:37.364Z,4.60
2018-01-27T22:00:40.026Z,4.80
2018-01-27T22:05:42.758Z,4.80
2018-01-27T22:10:46.244Z,4.80
2018-01-27T22:15:50.345Z,4.90
2018-01-27T22:20:53.253Z,4.90
2018-01-27T22:25:56.462Z,4.90
2018-01-27T22:30:59.128Z,4.90
2018-01-27T22:36:03.224Z,4.90
2018-01-27T22:41:05.937Z,5.00
2018-01-27T22:46:08.752Z,4.90
2018-01-27T22:51:11.442Z,4.90
2018-01-27T22:56:14.408Z,4.90
2018-01-27T23:01:20.932Z,4.90
2018-01-27T23:06:24.193Z,4.90
2018-01-27T23:11:27.754Z,5.00
2018-01-27T23:16:31.133Z,5.00
2018-01-27T23:21:34.636Z,5.00
2018-01-27T23:26:38.311Z,5.00
2018-01-27T23:31:41.074Z,5.10
2018-01-27T23:36:44.642Z,5.20
2018-01-27T23:41:47.518Z,5.20
2018-01-27T23:46:50.803Z,5.30
2018-01-27T23:51:53.481Z,5.40
2018-01-27T23:56:56.450Z,5.40
